sensor_id;sensor_type;location;lat;lon;timestamp;pressure;altitude;pressure_sealevel;temperature;humidity
71903;BME280;59778;50.310;18.780;2023-05-22T00:10:11;98855.53;;;15.74;59.84
71903;BME280;59778;50.310;18.780;2023-05-22T00:25:33;98843.47;;;15.07;62.92
71903;BME280;59778;50.310;18.780;2023-05-22T00:40:54;98829.06;;;14.94;61.46
71903;BME280;59778;50.310;18.780;2023-05-22T00:56:16;98835.16;;;14.96;60.66
71903;BME280;59778;50.310;18.780;2023-05-22T01:43:07;98798.09;;;14.37;60.57
71903;BME280;59778;50.310;18.780;2023-05-22T01:58:48;98801.06;;;14.29;60.52
71903;BME280;59778;50.310;18.780;2023-05-22T02:14:12;98804.91;;;14.15;60.74
71903;BME280;59778;50.310;18.780;2023-05-22T02:29:33;98796.38;;;13.98;61.94
71903;BME280;59778;50.310;18.780;2023-05-22T02:44:55;98791.66;;;13.61;64.20
71903;BME280;59778;50.310;18.780;2023-05-22T03:00:17;98790.00;;;13.53;64.97
71903;BME280;59778;50.310;18.780;2023-05-22T03:15:38;98800.72;;;13.55;65.39
71903;BME280;59778;50.310;18.780;2023-05-22T03:30:59;98792.72;;;13.53;65.59
71903;BME280;59778;50.310;18.780;2023-05-22T03:46:21;98794.22;;;13.36;69.26
71903;BME280;59778;50.310;18.780;2023-05-22T04:01:43;98811.66;;;13.35;71.89
71903;BME280;59778;50.310;18.780;2023-05-22T04:17:06;98812.03;;;13.58;73.59
71903;BME280;59778;50.310;18.780;2023-05-22T04:32:27;98798.88;;;14.00;70.44
71903;BME280;59778;50.310;18.780;2023-05-22T04:47:50;98790.06;;;14.49;64.55
71903;BME280;59778;50.310;18.780;2023-05-22T05:03:12;98786.78;;;14.90;63.25
71903;BME280;59778;50.310;18.780;2023-05-22T05:18:34;98790.19;;;15.35;64.43
71903;BME280;59778;50.310;18.780;2023-05-22T05:33:55;98802.59;;;15.98;60.52
71903;BME280;59778;50.310;18.780;2023-05-22T05:49:18;98802.69;;;16.58;56.36
71903;BME280;59778;50.310;18.780;2023-05-22T06:04:39;98793.75;;;17.27;54.08
71903;BME280;59778;50.310;18.780;2023-05-22T06:20:02;98785.03;;;18.00;55.11
71903;BME280;59778;50.310;18.780;2023-05-22T06:35:26;98781.00;;;19.04;49.18
71903;BME280;59778;50.310;18.780;2023-05-22T06:50:49;98773.91;;;19.75;48.69
71903;BME280;59778;50.310;18.780;2023-05-22T07:06:10;98779.72;;;20.00;45.13
71903;BME280;59778;50.310;18.780;2023-05-22T07:21:32;98775.13;;;20.28;42.08
71903;BME280;59778;50.310;18.780;2023-05-22T07:36:55;98777.38;;;21.38;39.69
71903;BME280;59778;50.310;18.780;2023-05-22T07:52:16;98773.91;;;21.52;38.49
71903;BME280;59778;50.310;18.780;2023-05-22T08:07:38;98760.25;;;21.83;37.26
71903;BME280;59778;50.310;18.780;2023-05-22T08:22:59;98771.69;;;21.91;39.22
71903;BME280;59778;50.310;18.780;2023-05-22T08:38:20;98747.50;;;22.24;36.33
71903;BME280;59778;50.310;18.780;2023-05-22T08:53:42;98735.38;;;22.50;33.30
71903;BME280;59778;50.310;18.780;2023-05-22T09:09:04;98739.81;;;22.56;34.47
71903;BME280;59778;50.310;18.780;2023-05-22T09:24:25;98730.19;;;22.74;32.22
71903;BME280;59778;50.310;18.780;2023-05-22T09:39:47;98732.16;;;23.09;34.93
71903;BME280;59778;50.310;18.780;2023-05-22T09:55:13;98715.47;;;23.69;33.48
71903;BME280;59778;50.310;18.780;2023-05-22T10:10:35;98708.88;;;23.45;31.77
71903;BME280;59778;50.310;18.780;2023-05-22T10:25:57;98694.91;;;23.80;34.67
71903;BME280;59778;50.310;18.780;2023-05-22T10:41:18;98698.16;;;24.03;33.86
71903;BME280;59778;50.310;18.780;2023-05-22T10:56:39;98697.56;;;24.21;35.91
71903;BME280;59778;50.310;18.780;2023-05-22T11:12:15;98688.06;;;23.53;32.85
71903;BME280;59778;50.310;18.780;2023-05-22T11:27:39;98672.06;;;24.04;32.45
71903;BME280;59778;50.310;18.780;2023-05-22T11:43:00;98677.34;;;24.54;34.01
71903;BME280;59778;50.310;18.780;2023-05-22T11:58:26;98674.31;;;24.51;34.17
71903;BME280;59778;50.310;18.780;2023-05-22T12:13:48;98676.97;;;23.37;33.47
71903;BME280;59778;50.310;18.780;2023-05-22T12:29:12;98667.50;;;25.11;31.10
71903;BME280;59778;50.310;18.780;2023-05-22T12:44:33;98641.28;;;26.54;30.81
71903;BME280;59778;50.310;18.780;2023-05-22T12:59:55;98644.41;;;26.10;27.47
71903;BME280;59778;50.310;18.780;2023-05-22T13:15:17;98635.50;;;26.51;30.34
71903;BME280;59778;50.310;18.780;2023-05-22T13:30:38;98622.16;;;26.48;29.05
71903;BME280;59778;50.310;18.780;2023-05-22T13:45:59;98615.16;;;26.50;28.27
71903;BME280;59778;50.310;18.780;2023-05-22T14:01:21;98600.53;;;26.58;25.92
71903;BME280;59778;50.310;18.780;2023-05-22T14:16:43;98587.44;;;26.91;27.47
71903;BME280;59778;50.310;18.780;2023-05-22T14:32:04;98566.59;;;26.89;26.41
71903;BME280;59778;50.310;18.780;2023-05-22T14:47:25;98555.00;;;27.41;26.41
71903;BME280;59778;50.310;18.780;2023-05-22T15:02:47;98544.13;;;27.26;27.31
71903;BME280;59778;50.310;18.780;2023-05-22T15:18:08;98541.22;;;27.04;29.36
71903;BME280;59778;50.310;18.780;2023-05-22T15:33:29;98532.94;;;26.99;29.06
71903;BME280;59778;50.310;18.780;2023-05-22T15:48:51;98528.00;;;25.75;29.12
71903;BME280;59778;50.310;18.780;2023-05-22T16:04:12;98510.28;;;24.42;31.08
71903;BME280;59778;50.310;18.780;2023-05-22T16:19:33;98493.84;;;24.12;31.61
71903;BME280;59778;50.310;18.780;2023-05-22T16:34:54;98504.16;;;23.03;33.15
71903;BME280;59778;50.310;18.780;2023-05-22T16:50:15;98513.38;;;22.63;33.52
71903;BME280;59778;50.310;18.780;2023-05-22T17:05:37;98520.00;;;22.17;35.57
71903;BME280;59778;50.310;18.780;2023-05-22T17:20:58;98526.59;;;21.80;38.12
71903;BME280;59778;50.310;18.780;2023-05-22T17:36:20;98527.78;;;21.22;39.93
71903;BME280;59778;50.310;18.780;2023-05-22T17:51:41;98532.34;;;20.96;41.59
71903;BME280;59778;50.310;18.780;2023-05-22T18:07:02;98528.31;;;20.30;43.55
71903;BME280;59778;50.310;18.780;2023-05-22T18:22:24;98516.94;;;19.68;45.56
71903;BME280;59778;50.310;18.780;2023-05-22T18:37:45;98521.47;;;19.30;47.78
71903;BME280;59778;50.310;18.780;2023-05-22T18:53:06;98522.91;;;18.73;50.62
71903;BME280;59778;50.310;18.780;2023-05-22T19:08:28;98525.78;;;18.11;54.11
71903;BME280;59778;50.310;18.780;2023-05-22T19:23:54;98519.72;;;17.64;56.93
71903;BME280;59778;50.310;18.780;2023-05-22T19:39:15;98526.84;;;17.09;58.81
71903;BME280;59778;50.310;18.780;2023-05-22T19:54:37;98524.06;;;16.69;61.98
71903;BME280;59778;50.310;18.780;2023-05-22T20:09:58;98521.53;;;16.32;62.64
71903;BME280;59778;50.310;18.780;2023-05-22T20:25:20;98509.13;;;16.07;64.14
71903;BME280;59778;50.310;18.780;2023-05-22T20:40:41;98492.06;;;15.93;65.38
71903;BME280;59778;50.310;18.780;2023-05-22T20:56:07;98498.16;;;15.83;66.90
71903;BME280;59778;50.310;18.780;2023-05-22T21:11:28;98500.75;;;15.78;66.67
71903;BME280;59778;50.310;18.780;2023-05-22T21:26:49;98487.16;;;15.42;68.13
71903;BME280;59778;50.310;18.780;2023-05-22T21:42:11;98482.56;;;15.13;68.25
71903;BME280;59778;50.310;18.780;2023-05-22T21:57:32;98480.00;;;14.99;68.87
71903;BME280;59778;50.310;18.780;2023-05-22T22:12:54;98473.25;;;14.84;70.03
71903;BME280;59778;50.310;18.780;2023-05-22T22:28:15;98468.25;;;14.62;71.52
71903;BME280;59778;50.310;18.780;2023-05-22T22:43:36;98462.47;;;14.71;70.11
71903;BME280;59778;50.310;18.780;2023-05-22T22:58:57;98451.94;;;14.56;69.86
71903;BME280;59778;50.310;18.780;2023-05-22T23:14:19;98446.41;;;14.44;70.49
71903;BME280;59778;50.310;18.780;2023-05-22T23:29:40;98438.03;;;14.39;70.01
71903;BME280;59778;50.310;18.780;2023-05-22T23:45:02;98420.50;;;14.29;70.61
